Terminal Aerodrome Forecast
Issued by NWS

Home | Current Version | Previous Version | Graphics & Text | Print | Product List | Glossary On
Versions: 1 2 3 4 5 6 7 8 9 10 11 12 13 14 15 16 17 18 19 20 21 22 23 24 25 26 27 28 29
299
FTUS43 KABR 051913 AAA
TAFMBG
TAF AMD
KMBG 051913Z 0519/0618 31020G27KT 1/4SM SN FG BKN006 OVC010
     FM052000 31027G38KT 3SM BLSN BR VCSH OVC015
     FM052200 30028G40KT P6SM OVC035
     FM060000 30027G38KT P6SM BKN035
     FM061000 30021G30KT P6SM BKN040=

USA.gov is the U.S. government's official web portal to all federal, state and local government web resources and services.